createdAt,value
2017-05-15T00:00:09.660Z,1019.55
2017-05-15T00:01:20.186Z,1019.53
2017-05-15T00:02:30.482Z,1019.51
2017-05-15T00:03:40.772Z,1019.54
2017-05-15T00:04:51.060Z,1019.54
2017-05-15T00:06:01.099Z,1019.56
2017-05-15T00:07:11.637Z,1019.58
2017-05-15T00:08:21.918Z,1019.54
2017-05-15T00:09:31.906Z,1019.57
2017-05-15T00:10:42.197Z,1019.6
2017-05-15T00:11:52.490Z,1019.6
2017-05-15T00:13:02.720Z,1019.63
2017-05-15T00:14:12.995Z,1019.62
2017-05-15T00:15:23.292Z,1019.62
2017-05-15T00:16:33.268Z,1019.63
2017-05-15T00:17:43.548Z,1019.61
2017-05-15T00:18:54.088Z,1019.66
2017-05-15T00:20:04.370Z,1019.66
2017-05-15T00:21:14.690Z,1019.64
2017-05-15T00:22:24.662Z,1019.64
2017-05-15T00:23:34.625Z,1019.63
2017-05-15T00:24:44.855Z,1019.62
2017-05-15T00:25:55.185Z,1019.59
2017-05-15T00:27:05.481Z,1019.57
2017-05-15T00:28:15.772Z,1019.58
2017-05-15T00:29:26.049Z,1019.6
2017-05-15T00:30:36.269Z,1019.56
2017-05-15T00:31:46.542Z,1019.57
2017-05-15T00:32:56.518Z,1019.57
2017-05-15T00:34:06.804Z,1019.6
2017-05-15T00:35:17.078Z,1019.59
2017-05-15T00:36:27.600Z,1019.54
2017-05-15T00:37:37.885Z,1019.56
2017-05-15T00:38:48.171Z,1019.53
2017-05-15T00:39:58.455Z,1019.56
2017-05-15T00:41:08.733Z,1019.57
2017-05-15T00:42:18.946Z,1019.55
2017-05-15T00:43:28.918Z,1019.52
2017-05-15T00:44:39.199Z,1019.56
2017-05-15T00:45:49.483Z,1019.52
2017-05-15T00:46:59.460Z,1019.51
2017-05-15T00:48:10.001Z,1019.57
2017-05-15T00:49:20.284Z,1019.59
2017-05-15T00:50:30.574Z,1019.53
2017-05-15T00:51:40.848Z,1019.53
2017-05-15T00:52:51.129Z,1019.53
2017-05-15T00:54:01.669Z,1019.51
2017-05-15T00:55:12.001Z,1019.51
2017-05-15T00:56:21.977Z,1019.49
2017-05-15T00:57:32.255Z,1019.51
2017-05-15T00:58:42.548Z,1019.55
2017-05-15T00:59:53.083Z,1019.56
2017-05-15T01:01:03.359Z,1019.52
2017-05-15T01:02:13.651Z,1019.55
2017-05-15T01:03:23.937Z,1019.58
2017-05-15T01:04:34.214Z,1019.59
2017-05-15T01:05:44.751Z,1019.61
2017-05-15T01:06:54.409Z,1019.6
2017-05-15T01:08:04.063Z,1019.65
2017-05-15T01:09:14.379Z,1019.63
2017-05-15T01:10:24.413Z,1019.65
2017-05-15T01:11:34.653Z,1019.7
2017-05-15T01:12:44.977Z,1019.76
2017-05-15T01:13:54.953Z,1019.77
2017-05-15T01:15:04.937Z,1019.79
2017-05-15T01:16:14.905Z,1019.8
2017-05-15T01:17:25.136Z,1019.83
2017-05-15T01:18:35.477Z,1019.87
2017-05-15T01:19:45.774Z,1019.88
2017-05-15T01:20:56.066Z,1019.93
2017-05-15T01:22:06.356Z,1019.96
2017-05-15T01:23:16.948Z,1020.01
2017-05-15T01:24:26.676Z,1020
2017-05-15T01:25:36.963Z,1020
2017-05-15T01:26:47.276Z,1019.94
2017-05-15T01:27:57.554Z,1019.98
2017-05-15T01:29:08.095Z,1019.98
2017-05-15T01:30:18.082Z,1020.01
2017-05-15T01:31:28.363Z,1020.01
2017-05-15T01:32:38.653Z,1020.02
2017-05-15T01:33:48.936Z,1020.07
2017-05-15T01:34:59.157Z,1020.15
2017-05-15T01:36:09.434Z,1020.17
2017-05-15T01:37:19.716Z,1020.19
2017-05-15T01:38:29.993Z,1020.19
2017-05-15T01:39:39.972Z,1020.2
2017-05-15T01:40:50.193Z,1020.21
2017-05-15T01:42:00.471Z,1020.22
2017-05-15T01:43:10.447Z,1020.22
2017-05-15T01:44:20.418Z,1020.23
2017-05-15T01:45:30.709Z,1020.24
2017-05-15T01:46:41.241Z,1020.24
2017-05-15T01:47:51.525Z,1020.17
2017-05-15T01:49:01.509Z,1020.2
2017-05-15T01:50:11.799Z,1020.16
2017-05-15T01:51:22.067Z,1020.2
2017-05-15T01:52:32.607Z,1020.19
2017-05-15T01:53:42.585Z,1020.19
2017-05-15T01:54:52.880Z,1020.15
2017-05-15T01:56:02.589Z,1020.17
2017-05-15T01:57:12.866Z,1020.16
2017-05-15T01:58:23.093Z,1020.23
2017-05-15T01:59:33.066Z,1020.17
2017-05-15T02:00:43.361Z,1020.14
2017-05-15T02:01:53.652Z,1020.15
2017-05-15T02:03:03.947Z,1020.21
2017-05-15T02:04:14.160Z,1020.24
2017-05-15T02:05:24.125Z,1020.24
2017-05-15T02:06:34.098Z,1020.24
2017-05-15T02:07:44.382Z,1020.25
2017-05-15T02:08:54.677Z,1020.27
2017-05-15T02:10:05.214Z,1020.23
2017-05-15T02:11:15.185Z,1020.26
2017-05-15T02:12:25.152Z,1020.26
2017-05-15T02:13:35.494Z,1020.23
2017-05-15T02:14:45.794Z,1020.23
2017-05-15T02:15:56.331Z,1020.23
2017-05-15T02:17:06.666Z,1020.21
2017-05-15T02:18:16.988Z,1020.17
2017-05-15T02:19:26.658Z,1020.19
2017-05-15T02:20:36.939Z,1020.18
2017-05-15T02:21:47.476Z,1020.2
2017-05-15T02:22:57.755Z,1020.22
2017-05-15T02:24:08.054Z,1020.22
2017-05-15T02:25:18.334Z,1020.26
2017-05-15T02:26:28.609Z,1020.23
2017-05-15T02:27:39.137Z,1020.22
2017-05-15T02:28:49.108Z,1020.21
2017-05-15T02:29:59.083Z,1020.19
2017-05-15T02:31:09.060Z,1020.18
2017-05-15T02:32:19.024Z,1020.21
2017-05-15T02:33:28.998Z,1020.23
2017-05-15T02:34:39.282Z,1020.24
2017-05-15T02:35:49.572Z,1020.27
2017-05-15T02:36:59.865Z,1020.23
2017-05-15T02:38:09.841Z,1020.22
2017-05-15T02:39:20.370Z,1020.2
2017-05-15T02:40:30.343Z,1020.21
2017-05-15T02:41:40.625Z,1020.21
2017-05-15T02:42:50.605Z,1020.22
2017-05-15T02:44:00.881Z,1020.23
2017-05-15T02:45:11.418Z,1020.25
2017-05-15T02:46:21.697Z,1020.23
2017-05-15T02:47:31.983Z,1020.25
2017-05-15T02:48:41.953Z,1020.23
2017-05-15T02:49:52.238Z,1020.26
2017-05-15T02:51:02.774Z,1020.26
2017-05-15T02:52:12.736Z,1020.27
2017-05-15T02:53:23.016Z,1020.28
2017-05-15T02:54:33.310Z,1020.25
2017-05-15T02:55:43.274Z,1020.28
2017-05-15T02:56:53.813Z,1020.25
2017-05-15T02:58:03.780Z,1020.26
2017-05-15T02:59:13.755Z,1020.3
2017-05-15T03:00:24.037Z,1020.31
2017-05-15T03:01:34.314Z,1020.32
2017-05-15T03:02:44.537Z,1020.32
2017-05-15T03:03:54.537Z,1020.31
2017-05-15T03:05:04.813Z,1020.35
2017-05-15T03:06:15.093Z,1020.31
2017-05-15T03:07:25.378Z,1020.32
2017-05-15T03:08:35.904Z,1020.35
2017-05-15T03:09:46.195Z,1020.35
2017-05-15T03:10:56.480Z,1020.36
2017-05-15T03:12:06.456Z,1020.32
2017-05-15T03:13:16.773Z,1020.34
2017-05-15T03:14:27.005Z,1020.32
2017-05-15T03:15:37.295Z,1020.31
2017-05-15T03:16:47.576Z,1020.32
2017-05-15T03:17:57.867Z,1020.28
2017-05-15T03:19:08.155Z,1020.31
2017-05-15T03:20:18.745Z,1020.28
2017-05-15T03:21:28.712Z,1020.29
2017-05-15T03:22:38.372Z,1020.32
2017-05-15T03:23:48.677Z,1020.34
2017-05-15T03:24:58.969Z,1020.38
2017-05-15T03:26:09.494Z,1020.36
2017-05-15T03:27:19.789Z,1020.34
2017-05-15T03:28:29.753Z,1020.39
2017-05-15T03:29:40.039Z,1020.36
2017-05-15T03:30:50.318Z,1020.33
2017-05-15T03:32:00.583Z,1020.34
2017-05-15T03:33:10.866Z,1020.4
2017-05-15T03:34:21.158Z,1020.36
2017-05-15T03:35:31.134Z,1020.34
2017-05-15T03:36:41.409Z,1020.34
2017-05-15T03:37:51.939Z,1020.39
2017-05-15T03:39:02.228Z,1020.39
2017-05-15T03:40:12.509Z,1020.36
2017-05-15T03:41:22.781Z,1020.4
2017-05-15T03:42:32.749Z,1020.42
2017-05-15T03:43:42.702Z,1020.43
2017-05-15T03:44:52.984Z,1020.42
2017-05-15T03:46:03.316Z,1020.46
2017-05-15T03:47:13.285Z,1020.47
2017-05-15T03:48:23.565Z,1020.49
2017-05-15T03:49:34.094Z,1020.49
2017-05-15T03:50:44.383Z,1020.45
2017-05-15T03:51:54.047Z,1020.51
2017-05-15T03:53:03.714Z,1020.5
2017-05-15T03:54:13.368Z,1020.5
2017-05-15T03:55:23.908Z,1020.44
2017-05-15T03:56:33.246Z,1020.51
2017-05-15T03:57:43.529Z,1020.52
2017-05-15T03:58:53.820Z,1020.5
2017-05-15T04:00:04.115Z,1020.51
2017-05-15T04:01:14.654Z,1020.58
2017-05-15T04:02:24.931Z,1020.59
2017-05-15T04:03:35.218Z,1020.59
2017-05-15T04:04:45.493Z,1020.6
2017-05-15T04:05:55.475Z,1020.63
2017-05-15T04:07:06.000Z,1020.65
2017-05-15T04:08:15.666Z,1020.64
2017-05-15T04:09:25.955Z,1020.65
2017-05-15T04:10:36.247Z,1020.69
2017-05-15T04:11:45.921Z,1020.71
2017-05-15T04:12:56.148Z,1020.78
2017-05-15T04:14:06.118Z,1020.77
2017-05-15T04:15:16.401Z,1020.77
2017-05-15T04:16:26.368Z,1020.79
2017-05-15T04:17:36.643Z,1020.81
2017-05-15T04:18:47.174Z,1020.83
2017-05-15T04:19:57.150Z,1020.84
2017-05-15T04:21:07.472Z,1020.87
2017-05-15T04:22:17.756Z,1020.9
2017-05-15T04:23:27.729Z,1020.89
2017-05-15T04:24:38.264Z,1020.95
2017-05-15T04:25:48.545Z,1020.95
2017-05-15T04:26:58.516Z,1020.97
2017-05-15T04:28:08.807Z,1021.02
2017-05-15T04:29:19.091Z,1021.06
2017-05-15T04:30:29.652Z,1021.05
2017-05-15T04:31:39.937Z,1021.05
2017-05-15T04:32:50.225Z,1021.05
2017-05-15T04:34:00.205Z,1021.05
2017-05-15T04:35:10.484Z,1021.1
2017-05-15T04:36:21.019Z,1021.06
2017-05-15T04:37:30.993Z,1021.11
2017-05-15T04:38:41.286Z,1021.12
2017-05-15T04:39:51.583Z,1021.15
2017-05-15T04:41:01.252Z,1021.15
2017-05-15T04:42:11.792Z,1021.17
2017-05-15T04:43:22.068Z,1021.13
2017-05-15T04:44:32.358Z,1021.11
2017-05-15T04:45:42.647Z,1021.1
2017-05-15T04:46:52.309Z,1021.16
2017-05-15T04:48:02.534Z,1021.18
2017-05-15T04:49:12.515Z,1021.17
2017-05-15T04:50:22.494Z,1021.15
2017-05-15T04:51:32.773Z,1021.14
2017-05-15T04:52:43.059Z,1021.19
2017-05-15T04:53:53.595Z,1021.21
2017-05-15T04:55:03.878Z,1021.23
2017-05-15T04:56:13.854Z,1021.23
2017-05-15T04:57:24.140Z,1021.24
2017-05-15T04:58:34.111Z,1021.23
2017-05-15T04:59:44.639Z,1021.22
2017-05-15T05:00:54.924Z,1021.22
2017-05-15T05:02:05.204Z,1021.22
2017-05-15T05:03:15.488Z,1021.27
2017-05-15T05:04:25.772Z,1021.27
2017-05-15T05:05:36.307Z,1021.32
2017-05-15T05:06:46.593Z,1021.32
2017-05-15T05:07:56.886Z,1021.35
2017-05-15T05:09:07.186Z,1021.34
2017-05-15T05:10:17.154Z,1021.4
2017-05-15T05:11:27.743Z,1021.43
2017-05-15T05:12:38.025Z,1021.44
2017-05-15T05:13:48.318Z,1021.46
2017-05-15T05:14:58.611Z,1021.48
2017-05-15T05:16:08.887Z,1021.51
2017-05-15T05:17:19.120Z,1021.52
2017-05-15T05:18:29.156Z,1021.53
2017-05-15T05:19:39.505Z,1021.53
2017-05-15T05:20:49.809Z,1021.57
2017-05-15T05:22:00.135Z,1021.55
2017-05-15T05:23:10.675Z,1021.58
2017-05-15T05:24:20.971Z,1021.61
2017-05-15T05:25:31.263Z,1021.6
2017-05-15T05:26:41.557Z,1021.6
2017-05-15T05:27:51.852Z,1021.58
2017-05-15T05:29:02.400Z,1021.56
2017-05-15T05:30:12.697Z,1021.62
2017-05-15T05:31:22.678Z,1021.58
2017-05-15T05:32:32.985Z,1021.58
2017-05-15T05:33:42.968Z,1021.6
2017-05-15T05:34:53.511Z,1021.68
2017-05-15T05:36:03.802Z,1021.66
2017-05-15T05:37:14.102Z,1021.68
2017-05-15T05:38:24.394Z,1021.66
2017-05-15T05:39:34.678Z,1021.64
2017-05-15T05:40:45.215Z,1021.63
2017-05-15T05:41:55.193Z,1021.68
2017-05-15T05:43:05.177Z,1021.66
2017-05-15T05:44:15.465Z,1021.67
2017-05-15T05:45:25.778Z,1021.68
2017-05-15T05:46:35.999Z,1021.72
2017-05-15T05:47:46.296Z,1021.72
2017-05-15T05:48:56.620Z,1021.79
2017-05-15T05:50:05.999Z,1021.77
2017-05-15T05:51:16.300Z,1021.82
2017-05-15T05:52:26.556Z,1021.81
2017-05-15T05:53:36.231Z,1021.85
2017-05-15T05:54:46.540Z,1021.85
2017-05-15T05:55:56.541Z,1021.83
2017-05-15T05:57:06.821Z,1021.84
2017-05-15T05:58:21.321Z,1021.87
2017-05-15T05:59:31.615Z,1021.88
2017-05-15T06:00:41.915Z,1021.88
2017-05-15T06:01:52.210Z,1021.89
2017-05-15T06:03:02.516Z,1021.91
2017-05-15T06:04:13.117Z,1021.92
2017-05-15T06:05:23.120Z,1021.9
2017-05-15T06:06:33.115Z,1021.96
2017-05-15T06:07:43.413Z,1021.97
2017-05-15T06:08:53.708Z,1021.99
2017-05-15T06:10:04.298Z,1021.96
2017-05-15T06:11:14.583Z,1022
2017-05-15T06:12:24.875Z,1022.01
2017-05-15T06:13:34.900Z,1022.01
2017-05-15T06:14:45.199Z,1021.99
2017-05-15T06:15:55.773Z,1021.96
2017-05-15T06:17:06.116Z,1022.02
2017-05-15T06:18:16.415Z,1021.98
2017-05-15T06:19:26.716Z,1022.01
2017-05-15T06:20:37.013Z,1022
2017-05-15T06:23:04.961Z,1022.03
2017-05-15T06:24:14.981Z,1022.03
2017-05-15T06:25:24.957Z,1022.09
2017-05-15T06:26:34.957Z,1022.08
2017-05-15T06:27:45.258Z,1022.08
2017-05-15T06:28:55.815Z,1022.04
2017-05-15T06:30:06.113Z,1022.06
2017-05-15T06:31:16.427Z,1022.06
2017-05-15T06:32:26.727Z,1022.05
2017-05-15T06:33:36.708Z,1022.07
2017-05-15T06:34:47.264Z,1022.07
2017-05-15T06:35:57.252Z,1022.12
2017-05-15T06:37:07.586Z,1022.09
2017-05-15T06:38:17.916Z,1022.11
2017-05-15T06:39:27.592Z,1022.1
2017-05-15T06:40:37.838Z,1022.18
2017-05-15T06:41:47.516Z,1022.1
2017-05-15T06:42:57.828Z,1022.15
2017-05-15T06:44:08.175Z,1022.18
2017-05-15T06:45:18.476Z,1022.19
2017-05-15T06:46:33.211Z,1022.23
2017-05-15T06:47:43.512Z,1022.24
2017-05-15T06:48:53.822Z,1022.31
2017-05-15T06:50:04.141Z,1022.25
2017-05-15T06:51:14.443Z,1022.31
2017-05-15T06:52:25.104Z,1022.3
2017-05-15T06:53:35.403Z,1022.33
2017-05-15T06:54:45.723Z,1022.34
2017-05-15T06:55:56.021Z,1022.35
2017-05-15T06:57:06.339Z,1022.3
2017-05-15T06:58:16.874Z,1022.32
2017-05-15T06:59:27.202Z,1022.35
2017-05-15T07:00:37.514Z,1022.34
2017-05-15T07:01:47.802Z,1022.35
2017-05-15T07:02:57.792Z,1022.36
2017-05-15T07:04:08.091Z,1022.36
2017-05-15T07:05:18.356Z,1022.41
2017-05-15T07:06:28.352Z,1022.44
2017-05-15T07:07:38.614Z,1022.46
2017-05-15T07:08:48.905Z,1022.48
2017-05-15T07:09:59.255Z,1022.49
2017-05-15T07:11:09.526Z,1022.47
2017-05-15T07:12:19.846Z,1022.52
2017-05-15T07:13:30.431Z,1022.52
2017-05-15T07:14:40.478Z,1022.56
2017-05-15T07:15:50.757Z,1022.56
2017-05-15T07:17:00.759Z,1022.57
2017-05-15T07:18:11.195Z,1022.53
2017-05-15T07:19:21.487Z,1022.53
2017-05-15T07:20:31.790Z,1022.51
2017-05-15T07:21:42.435Z,1022.5
2017-05-15T07:22:52.438Z,1022.56
2017-05-15T07:24:02.739Z,1022.56
2017-05-15T07:25:13.060Z,1022.54
2017-05-15T07:26:23.061Z,1022.59
2017-05-15T07:27:33.658Z,1022.64
2017-05-15T07:28:43.957Z,1022.64
2017-05-15T07:29:54.251Z,1022.68
2017-05-15T07:31:04.561Z,1022.72
2017-05-15T07:32:14.862Z,1022.67
2017-05-15T07:33:25.189Z,1022.67
2017-05-15T07:34:35.545Z,1022.68
2017-05-15T07:35:45.860Z,1022.72
2017-05-15T07:36:55.839Z,1022.75
2017-05-15T07:38:06.143Z,1022.72
2017-05-15T07:39:16.378Z,1022.75
2017-05-15T07:40:26.672Z,1022.76
2017-05-15T07:41:36.970Z,1022.78
2017-05-15T07:42:46.946Z,1022.83
2017-05-15T07:43:57.253Z,1022.85
2017-05-15T07:45:07.226Z,1022.82
2017-05-15T07:46:17.206Z,1022.83
2017-05-15T07:47:27.198Z,1022.84
2017-05-15T07:48:37.486Z,1022.82
2017-05-15T07:49:47.165Z,1022.87
2017-05-15T07:50:57.782Z,1022.89
2017-05-15T07:52:08.101Z,1022.9
2017-05-15T07:53:18.450Z,1022.9
2017-05-15T07:54:28.446Z,1022.89
2017-05-15T07:55:38.770Z,1022.92
2017-05-15T07:56:49.003Z,1022.94
2017-05-15T07:57:58.998Z,1022.91
2017-05-15T07:59:08.989Z,1022.95
2017-05-15T08:00:19.289Z,1022.92
2017-05-15T08:01:29.280Z,1022.9
2017-05-15T08:02:39.531Z,1022.89
2017-05-15T08:03:49.563Z,1022.93
2017-05-15T08:04:59.907Z,1022.94
2017-05-15T08:06:09.906Z,1022.94
2017-05-15T08:07:19.911Z,1022.95
2017-05-15T08:08:29.846Z,1023.02
2017-05-15T08:09:39.847Z,1023.04
2017-05-15T08:10:50.149Z,1023.08
2017-05-15T08:12:00.447Z,1023.09
2017-05-15T08:13:10.742Z,1023.07
2017-05-15T08:14:20.675Z,1023.08
2017-05-15T08:15:30.972Z,1023.08
2017-05-15T08:16:41.305Z,1023.07
2017-05-15T08:17:51.326Z,1023.11
2017-05-15T08:19:01.639Z,1023.09
2017-05-15T08:20:12.245Z,1023.12
2017-05-15T08:21:22.564Z,1023.13
2017-05-15T08:22:32.602Z,1023.12
2017-05-15T08:23:42.614Z,1023.13
2017-05-15T08:24:52.632Z,1023.13
2017-05-15T08:26:03.243Z,1023.12
2017-05-15T08:27:13.638Z,1023.16
2017-05-15T08:28:23.978Z,1023.2
2017-05-15T08:29:33.962Z,1023.22
2017-05-15T08:30:44.247Z,1023.25
2017-05-15T08:31:54.191Z,1023.27
2017-05-15T08:33:04.490Z,1023.28
2017-05-15T08:34:14.186Z,1023.29
2017-05-15T08:35:24.187Z,1023.33
2017-05-15T08:36:34.190Z,1023.28
2017-05-15T08:37:44.479Z,1023.29
2017-05-15T08:38:54.785Z,1023.39
2017-05-15T08:40:05.097Z,1023.35
2017-05-15T08:41:15.099Z,1023.38
2017-05-15T08:42:25.092Z,1023.43
2017-05-15T08:43:35.700Z,1023.43
2017-05-15T08:44:46.003Z,1023.44
2017-05-15T08:45:56.473Z,1023.48
2017-05-15T08:47:06.802Z,1023.49
2017-05-15T08:48:17.098Z,1023.54
2017-05-15T08:49:27.649Z,1023.56
2017-05-15T08:50:37.949Z,1023.63
2017-05-15T08:51:47.935Z,1023.63
2017-05-15T08:52:57.932Z,1023.68
2017-05-15T08:54:08.251Z,1023.72
2017-05-15T08:55:22.119Z,1023.7
2017-05-15T08:56:32.423Z,1023.74
2017-05-15T08:57:42.725Z,1023.74
2017-05-15T08:58:53.016Z,1023.73
2017-05-15T09:00:03.019Z,1023.76
2017-05-15T09:01:13.669Z,1023.76
2017-05-15T09:02:23.977Z,1023.79
2017-05-15T09:03:33.976Z,1023.84
2017-05-15T09:04:43.337Z,1023.85
2017-05-15T09:05:53.332Z,1023.84
2017-05-15T09:07:03.950Z,1023.9
2017-05-15T09:08:14.254Z,1023.93
2017-05-15T09:09:24.554Z,1023.88
2017-05-15T09:10:34.843Z,1023.94
2017-05-15T09:11:44.828Z,1023.97
2017-05-15T09:12:55.477Z,1023.95
2017-05-15T09:14:05.473Z,1023.96
2017-05-15T09:15:15.774Z,1023.98
2017-05-15T09:16:26.146Z,1023.96
2017-05-15T09:17:36.476Z,1023.97
2017-05-15T09:18:47.035Z,1023.98
2017-05-15T09:19:57.348Z,1024.03
2017-05-15T09:21:07.649Z,1024.04
2017-05-15T09:22:17.943Z,1024.12
2017-05-15T09:23:28.262Z,1024.14
2017-05-15T09:24:38.853Z,1024.07
2017-05-15T09:25:49.486Z,1024.09
2017-05-15T09:26:59.799Z,1024.11
2017-05-15T09:28:09.469Z,1024.11
2017-05-15T09:29:19.770Z,1024.16
2017-05-15T09:30:30.335Z,1024.19
2017-05-15T09:31:40.374Z,1024.16
2017-05-15T09:32:50.351Z,1024.17
2017-05-15T09:34:00.027Z,1024.17
2017-05-15T09:35:10.015Z,1024.22
2017-05-15T09:36:20.598Z,1024.17
2017-05-15T09:37:30.888Z,1024.18
2017-05-15T09:38:40.880Z,1024.19
2017-05-15T09:39:51.185Z,1024.27
2017-05-15T09:41:01.492Z,1024.28
2017-05-15T09:42:11.741Z,1024.26
2017-05-15T09:43:21.410Z,1024.28
2017-05-15T09:44:31.388Z,1024.25
2017-05-15T09:45:41.692Z,1024.24
2017-05-15T09:46:51.686Z,1024.25
2017-05-15T09:48:02.248Z,1024.3
2017-05-15T09:49:12.540Z,1024.22
2017-05-15T09:50:22.833Z,1024.2
2017-05-15T09:51:33.158Z,1024.26
2017-05-15T09:52:43.136Z,1024.29
2017-05-15T09:53:53.680Z,1024.26
2017-05-15T09:55:03.985Z,1024.25
2017-05-15T09:56:14.295Z,1024.29
2017-05-15T09:57:24.619Z,1024.32
2017-05-15T09:58:34.933Z,1024.31
2017-05-15T09:59:45.486Z,1024.26
2017-05-15T10:00:55.471Z,1024.32
2017-05-15T10:02:05.818Z,1024.28
2017-05-15T10:03:16.126Z,1024.24
2017-05-15T10:04:26.474Z,1024.24
2017-05-15T10:05:37.014Z,1024.24
2017-05-15T10:06:47.317Z,1024.24
2017-05-15T10:07:57.615Z,1024.28
2017-05-15T10:09:07.907Z,1024.25
2017-05-15T10:10:18.200Z,1024.22
2017-05-15T10:11:28.745Z,1024.18
2017-05-15T10:12:38.730Z,1024.18
2017-05-15T10:13:49.031Z,1024.22
2017-05-15T10:14:59.345Z,1024.16
2017-05-15T10:16:09.333Z,1024.15
2017-05-15T10:17:19.878Z,1024.15
2017-05-15T10:18:29.867Z,1024.17
2017-05-15T10:19:40.202Z,1024.14
2017-05-15T10:20:50.495Z,1024.12
2017-05-15T10:22:00.911Z,1024.1
2017-05-15T10:23:11.456Z,1024.18
2017-05-15T10:24:21.970Z,1024.2
2017-05-15T10:25:32.271Z,1024.15
2017-05-15T10:26:42.628Z,1024.11
2017-05-15T10:27:52.911Z,1024.12
2017-05-15T10:29:03.149Z,1024.06
2017-05-15T10:30:13.450Z,1024.09
2017-05-15T10:31:23.555Z,1024.1
2017-05-15T10:32:33.870Z,1024.05
2017-05-15T10:33:44.191Z,1024.05
2017-05-15T10:34:54.748Z,1024.06
2017-05-15T10:36:05.043Z,1024.03
2017-05-15T10:37:15.343Z,1024.06
2017-05-15T10:38:25.332Z,1024.06
2017-05-15T10:39:35.624Z,1024.07
2017-05-15T10:40:46.051Z,1024.06
2017-05-15T10:41:56.359Z,1024.09
2017-05-15T10:43:06.670Z,1024.05
2017-05-15T10:44:16.973Z,1024.07
2017-05-15T10:45:27.302Z,1024.04
2017-05-15T10:46:41.599Z,1024.01
2017-05-15T10:47:51.903Z,1024
2017-05-15T10:49:02.221Z,1023.96
2017-05-15T10:50:12.508Z,1023.98
2017-05-15T10:51:22.811Z,1023.98
2017-05-15T10:52:33.364Z,1023.96
2017-05-15T10:53:43.650Z,1023.93
2017-05-15T10:54:53.645Z,1023.88
2017-05-15T10:56:03.622Z,1023.91
2017-05-15T10:57:14.215Z,1023.88
2017-05-15T10:58:24.780Z,1023.95
2017-05-15T10:59:35.081Z,1023.97
2017-05-15T11:00:45.360Z,1023.92
2017-05-15T11:01:55.337Z,1023.95
2017-05-15T11:03:05.666Z,1023.97
2017-05-15T11:04:16.224Z,1023.96
2017-05-15T11:05:25.886Z,1023.99
2017-05-15T11:06:35.867Z,1023.98
2017-05-15T11:07:46.164Z,1023.98
2017-05-15T11:08:56.450Z,1024
2017-05-15T11:10:07.095Z,1023.97
2017-05-15T11:11:17.393Z,1023.99
2017-05-15T11:12:27.366Z,1023.91
2017-05-15T11:13:37.659Z,1023.94
2017-05-15T11:14:47.943Z,1024
2017-05-15T11:15:58.538Z,1023.96
2017-05-15T11:17:08.845Z,1023.97
2017-05-15T11:18:18.841Z,1024.01
2017-05-15T11:19:29.135Z,1023.94
2017-05-15T11:20:39.470Z,1023.96
2017-05-15T11:30:04.118Z,1023.89
2017-05-15T11:31:14.437Z,1023.85
2017-05-15T11:32:24.755Z,1023.8
2017-05-15T11:33:35.129Z,1023.81
2017-05-15T11:34:45.368Z,1023.82
2017-05-15T11:35:55.671Z,1023.8
2017-05-15T11:37:05.961Z,1023.85
2017-05-15T11:38:16.281Z,1023.84
2017-05-15T11:39:26.586Z,1023.81
2017-05-15T11:40:37.119Z,1023.81
2017-05-15T11:41:47.441Z,1023.82
2017-05-15T11:42:57.423Z,1023.81
2017-05-15T11:44:07.413Z,1023.86
2017-05-15T11:45:17.711Z,1023.77
2017-05-15T11:46:32.399Z,1023.83
2017-05-15T11:47:42.699Z,1023.86
2017-05-15T11:48:53.019Z,1023.8
2017-05-15T11:50:03.010Z,1023.82
2017-05-15T11:51:13.027Z,1023.81
2017-05-15T11:52:23.579Z,1023.82
2017-05-15T11:53:33.894Z,1023.83
2017-05-15T11:54:44.182Z,1023.79
2017-05-15T11:55:54.196Z,1023.79
2017-05-15T11:57:04.195Z,1023.81
2017-05-15T11:58:14.425Z,1023.85
2017-05-15T11:59:24.731Z,1023.8
2017-05-15T12:00:34.720Z,1023.84
2017-05-15T12:01:44.700Z,1023.86
2017-05-15T12:02:54.674Z,1023.85
2017-05-15T12:04:05.214Z,1023.82
2017-05-15T12:05:15.521Z,1023.85
2017-05-15T12:06:25.514Z,1023.87
2017-05-15T12:07:35.827Z,1023.77
2017-05-15T12:08:45.846Z,1023.83
2017-05-15T12:09:56.397Z,1023.85
2017-05-15T12:11:06.709Z,1023.82
2017-05-15T12:12:17.016Z,1023.82
2017-05-15T12:13:27.369Z,1023.79
2017-05-15T12:14:37.355Z,1023.78
2017-05-15T12:15:47.904Z,1023.73
2017-05-15T12:16:58.233Z,1023.75
2017-05-15T12:18:08.210Z,1023.72
2017-05-15T12:19:18.521Z,1023.72
2017-05-15T12:20:28.519Z,1023.76
2017-05-15T12:21:39.180Z,1023.73
2017-05-15T12:22:49.161Z,1023.74
2017-05-15T12:23:59.452Z,1023.78
2017-05-15T12:25:09.747Z,1023.74
2017-05-15T12:26:20.029Z,1023.77
2017-05-15T12:27:30.251Z,1023.78
2017-05-15T12:28:40.231Z,1023.78
2017-05-15T12:29:50.516Z,1023.74
2017-05-15T12:31:00.826Z,1023.77
2017-05-15T12:32:11.142Z,1023.81
2017-05-15T12:33:21.727Z,1023.77
2017-05-15T12:34:32.035Z,1023.82
2017-05-15T12:35:42.452Z,1023.83
2017-05-15T12:36:52.439Z,1023.87
2017-05-15T12:38:02.728Z,1023.86
2017-05-15T12:39:16.974Z,1023.84
2017-05-15T12:40:27.276Z,1023.85
2017-05-15T12:41:37.578Z,1023.84
2017-05-15T12:42:47.861Z,1023.7
2017-05-15T12:43:57.874Z,1023.82
2017-05-15T12:45:08.456Z,1023.92
2017-05-15T12:46:18.745Z,1023.88
2017-05-15T12:47:29.031Z,1023.85
2017-05-15T12:48:39.325Z,1023.85
2017-05-15T12:49:49.624Z,1023.81
2017-05-15T12:51:00.168Z,1023.82
2017-05-15T12:52:10.456Z,1023.86
2017-05-15T12:53:20.496Z,1023.85
2017-05-15T12:54:30.813Z,1023.82
2017-05-15T12:55:41.112Z,1023.8
2017-05-15T12:56:51.672Z,1023.84
2017-05-15T12:58:01.652Z,1023.81
2017-05-15T12:59:11.643Z,1023.75
2017-05-15T13:00:21.853Z,1023.75
2017-05-15T13:01:32.140Z,1023.79
2017-05-15T13:02:42.697Z,1023.82
2017-05-15T13:03:52.692Z,1023.84
2017-05-15T13:05:02.682Z,1023.84
2017-05-15T13:06:12.980Z,1023.94
2017-05-15T13:07:22.971Z,1023.93
2017-05-15T13:08:36.982Z,1023.93
2017-05-15T13:09:46.979Z,1023.89
2017-05-15T13:10:56.979Z,1023.89
2017-05-15T13:12:06.952Z,1023.82
2017-05-15T13:13:17.251Z,1023.83
2017-05-15T13:14:27.488Z,1023.77
2017-05-15T13:15:37.840Z,1023.77
2017-05-15T13:16:48.173Z,1023.73
2017-05-15T13:17:58.480Z,1023.82
2017-05-15T13:19:08.487Z,1023.81
2017-05-15T13:20:18.738Z,1023.79
2017-05-15T13:21:29.049Z,1023.83
2017-05-15T13:22:39.344Z,1023.86
2017-05-15T13:23:49.662Z,1023.84
2017-05-15T13:24:59.957Z,1023.75
2017-05-15T13:26:10.509Z,1023.8
2017-05-15T13:27:20.805Z,1023.77
2017-05-15T13:28:31.120Z,1023.8
2017-05-15T13:29:41.106Z,1023.78
2017-05-15T13:30:51.405Z,1023.74
2017-05-15T13:32:01.944Z,1023.73
2017-05-15T13:33:11.299Z,1023.72
2017-05-15T13:34:21.591Z,1023.66
2017-05-15T13:35:31.901Z,1023.69
2017-05-15T13:36:42.183Z,1023.66
2017-05-15T13:37:52.758Z,1023.6
2017-05-15T13:39:02.742Z,1023.62
2017-05-15T13:40:13.044Z,1023.67
2017-05-15T13:41:23.027Z,1023.62
2017-05-15T13:42:33.310Z,1023.65
2017-05-15T13:43:43.858Z,1023.67
2017-05-15T13:44:54.170Z,1023.7
2017-05-15T13:46:04.155Z,1023.68
2017-05-15T13:47:14.660Z,1023.64
2017-05-15T13:48:24.964Z,1023.64
2017-05-15T13:49:35.519Z,1023.59
2017-05-15T13:50:45.819Z,1023.61
2017-05-15T13:51:56.116Z,1023.59
2017-05-15T13:53:06.406Z,1023.62
2017-05-15T13:54:16.729Z,1023.58
2017-05-15T13:55:27.276Z,1023.56
2017-05-15T13:56:37.562Z,1023.56
2017-05-15T13:57:47.540Z,1023.51
2017-05-15T13:58:57.830Z,1023.58
2017-05-15T14:00:08.124Z,1023.57
2017-05-15T14:01:18.375Z,1023.56
2017-05-15T14:02:28.664Z,1023.55
2017-05-15T14:03:38.951Z,1023.58
2017-05-15T14:04:49.257Z,1023.55
2017-05-15T14:05:59.549Z,1023.56
2017-05-15T14:07:09.828Z,1023.48
2017-05-15T14:08:20.116Z,1023.47
2017-05-15T14:09:30.412Z,1023.47
2017-05-15T14:10:40.697Z,1023.47
2017-05-15T14:11:50.993Z,1023.5
2017-05-15T14:13:01.225Z,1023.49
2017-05-15T14:14:11.202Z,1023.51
2017-05-15T14:15:21.490Z,1023.5
2017-05-15T14:16:31.491Z,1023.52
2017-05-15T14:17:41.784Z,1023.51
2017-05-15T14:18:52.371Z,1023.45
2017-05-15T14:20:02.649Z,1023.49
2017-05-15T14:21:12.944Z,1023.52
2017-05-15T14:22:22.934Z,1023.49